sensor_id;sensor_type;location;lat;lon;timestamp;pressure;altitude;pressure_sealevel;temperature;humidity
51147;BME280;37207;53.060;18.726;2023-05-12T00:00:46;101326.73;;;9.39;56.41
51147;BME280;37207;53.060;18.726;2023-05-12T00:03:14;101327.96;;;9.34;56.44
51147;BME280;37207;53.060;18.726;2023-05-12T00:05:40;101326.91;;;9.29;56.86
51147;BME280;37207;53.060;18.726;2023-05-12T00:08:07;101328.87;;;9.26;56.67
51147;BME280;37207;53.060;18.726;2023-05-12T00:10:33;101331.17;;;9.24;56.72
51147;BME280;37207;53.060;18.726;2023-05-12T00:13:01;101328.10;;;9.20;56.96
51147;BME280;37207;53.060;18.726;2023-05-12T00:15:27;101329.61;;;9.16;56.88
51147;BME280;37207;53.060;18.726;2023-05-12T00:17:54;101325.85;;;9.14;57.38
51147;BME280;37207;53.060;18.726;2023-05-12T00:20:20;101325.99;;;9.12;57.53
51147;BME280;37207;53.060;18.726;2023-05-12T00:22:47;101326.69;;;9.11;57.74
51147;BME280;37207;53.060;18.726;2023-05-12T00:25:14;101327.09;;;9.09;57.75
51147;BME280;37207;53.060;18.726;2023-05-12T00:27:40;101324.66;;;9.06;57.82
51147;BME280;37207;53.060;18.726;2023-05-12T00:30:08;101323.80;;;9.04;57.86
51147;BME280;37207;53.060;18.726;2023-05-12T00:32:34;101323.91;;;9.03;57.95
51147;BME280;37207;53.060;18.726;2023-05-12T00:35:01;101325.26;;;9.01;58.13
51147;BME280;37207;53.060;18.726;2023-05-12T00:37:28;101326.02;;;9.00;58.38
51147;BME280;37207;53.060;18.726;2023-05-12T00:39:54;101327.75;;;8.97;58.45
51147;BME280;37207;53.060;18.726;2023-05-12T00:42:21;101326.84;;;8.94;58.38
51147;BME280;37207;53.060;18.726;2023-05-12T00:44:47;101326.41;;;8.91;58.41
51147;BME280;37207;53.060;18.726;2023-05-12T00:47:14;101325.83;;;8.90;58.50
51147;BME280;37207;53.060;18.726;2023-05-12T00:49:40;101325.89;;;8.88;58.56
51147;BME280;37207;53.060;18.726;2023-05-12T00:52:08;101328.39;;;8.87;58.45
51147;BME280;37207;53.060;18.726;2023-05-12T00:54:35;101326.72;;;8.85;58.83
51147;BME280;37207;53.060;18.726;2023-05-12T00:57:03;101328.85;;;8.82;58.56
51147;BME280;37207;53.060;18.726;2023-05-12T00:59:30;101332.70;;;8.78;59.17
51147;BME280;37207;53.060;18.726;2023-05-12T01:01:57;101332.67;;;8.74;59.32
51147;BME280;37207;53.060;18.726;2023-05-12T01:04:24;101340.48;;;8.72;59.27
51147;BME280;37207;53.060;18.726;2023-05-12T01:07:18;101334.59;;;8.69;59.42
51147;BME280;37207;53.060;18.726;2023-05-12T01:09:46;101338.09;;;8.68;59.49
51147;BME280;37207;53.060;18.726;2023-05-12T01:12:14;101338.89;;;8.66;59.53
51147;BME280;37207;53.060;18.726;2023-05-12T01:14:41;101339.02;;;8.65;59.66
51147;BME280;37207;53.060;18.726;2023-05-12T01:17:11;101336.66;;;8.63;59.64
51147;BME280;37207;53.060;18.726;2023-05-12T01:19:51;101337.83;;;8.64;59.63
51147;BME280;37207;53.060;18.726;2023-05-12T01:22:19;101341.01;;;8.63;59.68
51147;BME280;37207;53.060;18.726;2023-05-12T01:24:53;101339.59;;;8.63;59.74
51147;BME280;37207;53.060;18.726;2023-05-12T01:27:22;101338.37;;;8.62;59.63
51147;BME280;37207;53.060;18.726;2023-05-12T01:29:51;101342.19;;;8.61;59.95
51147;BME280;37207;53.060;18.726;2023-05-12T01:32:19;101342.79;;;8.59;60.06
51147;BME280;37207;53.060;18.726;2023-05-12T01:34:47;101342.27;;;8.59;60.09
51147;BME280;37207;53.060;18.726;2023-05-12T01:37:14;101347.89;;;8.58;59.92
51147;BME280;37207;53.060;18.726;2023-05-12T01:39:41;101348.29;;;8.56;60.11
51147;BME280;37207;53.060;18.726;2023-05-12T01:42:12;101348.99;;;8.53;60.26
51147;BME280;37207;53.060;18.726;2023-05-12T01:44:39;101352.27;;;8.52;60.15
51147;BME280;37207;53.060;18.726;2023-05-12T01:47:06;101356.27;;;8.51;60.18
51147;BME280;37207;53.060;18.726;2023-05-12T01:49:36;101354.46;;;8.49;60.14
51147;BME280;37207;53.060;18.726;2023-05-12T01:52:03;101357.77;;;8.45;60.06
51147;BME280;37207;53.060;18.726;2023-05-12T01:54:31;101359.67;;;8.42;60.59
51147;BME280;37207;53.060;18.726;2023-05-12T01:56:57;101358.61;;;8.39;60.69
51147;BME280;37207;53.060;18.726;2023-05-12T01:59:24;101359.14;;;8.35;60.74
51147;BME280;37207;53.060;18.726;2023-05-12T02:01:51;101363.99;;;8.34;60.69
51147;BME280;37207;53.060;18.726;2023-05-12T02:04:23;101360.95;;;8.33;60.85
51147;BME280;37207;53.060;18.726;2023-05-12T02:06:50;101360.63;;;8.33;60.93
51147;BME280;37207;53.060;18.726;2023-05-12T02:09:17;101360.77;;;8.33;60.96
51147;BME280;37207;53.060;18.726;2023-05-12T02:11:44;101361.89;;;8.33;60.75
51147;BME280;37207;53.060;18.726;2023-05-12T02:14:10;101364.47;;;8.32;60.79
51147;BME280;37207;53.060;18.726;2023-05-12T02:16:37;101366.14;;;8.31;61.04
51147;BME280;37207;53.060;18.726;2023-05-12T02:19:04;101365.52;;;8.28;61.04
51147;BME280;37207;53.060;18.726;2023-05-12T02:21:31;101363.46;;;8.27;60.96
51147;BME280;37207;53.060;18.726;2023-05-12T02:23:58;101365.84;;;8.26;61.27
51147;BME280;37207;53.060;18.726;2023-05-12T02:26:25;101365.56;;;8.25;61.18
51147;BME280;37207;53.060;18.726;2023-05-12T02:28:51;101370.01;;;8.24;61.07
51147;BME280;37207;53.060;18.726;2023-05-12T02:31:18;101373.36;;;8.23;61.15
51147;BME280;37207;53.060;18.726;2023-05-12T02:33:45;101372.11;;;8.22;61.21
51147;BME280;37207;53.060;18.726;2023-05-12T02:36:12;101372.84;;;8.22;61.10
51147;BME280;37207;53.060;18.726;2023-05-12T02:38:38;101374.09;;;8.22;61.18
51147;BME280;37207;53.060;18.726;2023-05-12T02:41:05;101374.91;;;8.21;61.09
51147;BME280;37207;53.060;18.726;2023-05-12T02:43:33;101376.33;;;8.21;61.05
51147;BME280;37207;53.060;18.726;2023-05-12T02:45:59;101379.10;;;8.21;61.14
51147;BME280;37207;53.060;18.726;2023-05-12T02:48:26;101371.88;;;8.20;61.49
51147;BME280;37207;53.060;18.726;2023-05-12T02:50:53;101374.88;;;8.20;61.49
51147;BME280;37207;53.060;18.726;2023-05-12T02:53:19;101379.22;;;8.20;61.47
51147;BME280;37207;53.060;18.726;2023-05-12T02:55:46;101380.98;;;8.19;61.39
51147;BME280;37207;53.060;18.726;2023-05-12T02:58:13;101379.98;;;8.18;61.23
51147;BME280;37207;53.060;18.726;2023-05-12T03:00:40;101377.75;;;8.16;61.33
51147;BME280;37207;53.060;18.726;2023-05-12T03:03:06;101378.97;;;8.15;61.47
51147;BME280;37207;53.060;18.726;2023-05-12T03:05:33;101381.57;;;8.15;61.64
51147;BME280;37207;53.060;18.726;2023-05-12T03:07:59;101382.98;;;8.16;61.33
51147;BME280;37207;53.060;18.726;2023-05-12T03:10:26;101382.34;;;8.16;61.44
51147;BME280;37207;53.060;18.726;2023-05-12T03:12:53;101379.65;;;8.16;61.33
51147;BME280;37207;53.060;18.726;2023-05-12T03:15:20;101380.73;;;8.17;61.45
51147;BME280;37207;53.060;18.726;2023-05-12T03:17:47;101383.77;;;8.18;61.45
51147;BME280;37207;53.060;18.726;2023-05-12T03:20:13;101382.52;;;8.20;61.58
51147;BME280;37207;53.060;18.726;2023-05-12T03:22:40;101385.36;;;8.21;61.61
51147;BME280;37207;53.060;18.726;2023-05-12T03:25:08;101386.68;;;8.24;61.51
51147;BME280;37207;53.060;18.726;2023-05-12T03:27:35;101389.30;;;8.26;61.10
51147;BME280;37207;53.060;18.726;2023-05-12T03:30:03;101387.14;;;8.29;61.05
51147;BME280;37207;53.060;18.726;2023-05-12T03:32:35;101392.16;;;8.31;61.19
51147;BME280;37207;53.060;18.726;2023-05-12T03:35:05;101388.67;;;8.32;60.97
51147;BME280;37207;53.060;18.726;2023-05-12T03:37:32;101386.23;;;8.34;61.19
51147;BME280;37207;53.060;18.726;2023-05-12T03:39:59;101392.55;;;8.36;61.22
51147;BME280;37207;53.060;18.726;2023-05-12T03:42:25;101391.13;;;8.38;61.27
51147;BME280;37207;53.060;18.726;2023-05-12T03:44:52;101392.21;;;8.41;61.17
51147;BME280;37207;53.060;18.726;2023-05-12T03:47:18;101393.83;;;8.44;60.93
51147;BME280;37207;53.060;18.726;2023-05-12T03:49:45;101393.90;;;8.46;61.08
51147;BME280;37207;53.060;18.726;2023-05-12T03:52:12;101398.70;;;8.50;61.11
51147;BME280;37207;53.060;18.726;2023-05-12T03:54:39;101401.29;;;8.52;61.07
51147;BME280;37207;53.060;18.726;2023-05-12T03:57:06;101402.14;;;8.55;60.97
51147;BME280;37207;53.060;18.726;2023-05-12T03:59:33;101406.60;;;8.60;61.08
51147;BME280;37207;53.060;18.726;2023-05-12T04:02:00;101409.67;;;8.63;61.10
51147;BME280;37207;53.060;18.726;2023-05-12T04:04:27;101412.00;;;8.68;61.03
51147;BME280;37207;53.060;18.726;2023-05-12T04:06:53;101416.59;;;8.71;60.98
51147;BME280;37207;53.060;18.726;2023-05-12T04:09:20;101420.31;;;8.76;60.93
51147;BME280;37207;53.060;18.726;2023-05-12T04:11:46;101423.67;;;8.80;60.93
51147;BME280;37207;53.060;18.726;2023-05-12T04:14:13;101424.53;;;8.86;60.93
51147;BME280;37207;53.060;18.726;2023-05-12T04:16:39;101425.18;;;8.93;60.75
51147;BME280;37207;53.060;18.726;2023-05-12T04:19:06;101426.68;;;9.03;60.99
51147;BME280;37207;53.060;18.726;2023-05-12T04:21:34;101428.83;;;9.11;60.62
51147;BME280;37207;53.060;18.726;2023-05-12T04:24:01;101431.52;;;9.18;60.43
51147;BME280;37207;53.060;18.726;2023-05-12T04:26:31;101435.05;;;9.26;60.41
51147;BME280;37207;53.060;18.726;2023-05-12T04:28:57;101438.29;;;9.41;60.34
51147;BME280;37207;53.060;18.726;2023-05-12T04:31:24;101437.14;;;9.76;59.97
51147;BME280;37207;53.060;18.726;2023-05-12T04:33:51;101434.60;;;10.10;59.61
51147;BME280;37207;53.060;18.726;2023-05-12T04:36:18;101435.33;;;10.37;59.02
51147;BME280;37207;53.060;18.726;2023-05-12T04:38:44;101438.55;;;10.58;58.55
51147;BME280;37207;53.060;18.726;2023-05-12T04:41:12;101438.00;;;10.82;58.03
51147;BME280;37207;53.060;18.726;2023-05-12T04:43:38;101438.78;;;11.13;57.41
51147;BME280;37207;53.060;18.726;2023-05-12T04:46:05;101445.22;;;11.32;56.99
51147;BME280;37207;53.060;18.726;2023-05-12T04:48:32;101445.56;;;11.30;56.38
51147;BME280;37207;53.060;18.726;2023-05-12T04:50:59;101447.50;;;11.26;56.12
51147;BME280;37207;53.060;18.726;2023-05-12T04:53:26;101446.84;;;11.26;56.22
51147;BME280;37207;53.060;18.726;2023-05-12T04:55:53;101446.42;;;11.24;56.08
51147;BME280;37207;53.060;18.726;2023-05-12T04:58:22;101448.34;;;11.30;55.93
51147;BME280;37207;53.060;18.726;2023-05-12T05:00:50;101451.58;;;11.39;55.46
51147;BME280;37207;53.060;18.726;2023-05-12T05:03:17;101453.73;;;11.45;55.53
51147;BME280;37207;53.060;18.726;2023-05-12T05:05:43;101454.23;;;11.59;55.42
51147;BME280;37207;53.060;18.726;2023-05-12T05:08:10;101461.42;;;11.70;55.04
51147;BME280;37207;53.060;18.726;2023-05-12T05:10:37;101455.55;;;11.74;55.01
51147;BME280;37207;53.060;18.726;2023-05-12T05:13:03;101457.12;;;11.69;55.00
51147;BME280;37207;53.060;18.726;2023-05-12T05:15:30;101459.94;;;11.67;55.03
51147;BME280;37207;53.060;18.726;2023-05-12T05:17:56;101460.61;;;11.66;55.35
51147;BME280;37207;53.060;18.726;2023-05-12T05:20:23;101465.30;;;11.69;55.30
51147;BME280;37207;53.060;18.726;2023-05-12T05:22:49;101467.13;;;11.73;55.36
51147;BME280;37207;53.060;18.726;2023-05-12T05:25:17;101467.77;;;11.77;55.33
51147;BME280;37207;53.060;18.726;2023-05-12T05:27:43;101467.19;;;11.78;55.45
51147;BME280;37207;53.060;18.726;2023-05-12T05:30:10;101467.27;;;11.80;55.56
51147;BME280;37207;53.060;18.726;2023-05-12T05:32:38;101472.05;;;11.82;55.34
51147;BME280;37207;53.060;18.726;2023-05-12T05:35:06;101470.87;;;11.84;55.25
51147;BME280;37207;53.060;18.726;2023-05-12T05:37:35;101470.61;;;11.86;55.25
51147;BME280;37207;53.060;18.726;2023-05-12T05:40:02;101474.41;;;11.89;55.42
51147;BME280;37207;53.060;18.726;2023-05-12T05:42:30;101470.80;;;11.92;55.52
51147;BME280;37207;53.060;18.726;2023-05-12T05:44:57;101473.43;;;11.96;55.69
51147;BME280;37207;53.060;18.726;2023-05-12T05:47:23;101472.94;;;12.02;55.56
51147;BME280;37207;53.060;18.726;2023-05-12T05:49:50;101471.45;;;12.08;55.51
51147;BME280;37207;53.060;18.726;2023-05-12T05:52:17;101471.63;;;12.15;55.43
51147;BME280;37207;53.060;18.726;2023-05-12T05:54:44;101473.29;;;12.23;55.29
51147;BME280;37207;53.060;18.726;2023-05-12T05:57:10;101471.69;;;12.29;55.17
51147;BME280;37207;53.060;18.726;2023-05-12T05:59:37;101478.30;;;12.36;55.04
51147;BME280;37207;53.060;18.726;2023-05-12T06:02:04;101474.47;;;12.44;54.80
51147;BME280;37207;53.060;18.726;2023-05-12T06:04:30;101475.88;;;12.53;54.90
51147;BME280;37207;53.060;18.726;2023-05-12T06:06:57;101479.06;;;12.62;54.83
51147;BME280;37207;53.060;18.726;2023-05-12T06:09:24;101479.50;;;12.71;54.79
51147;BME280;37207;53.060;18.726;2023-05-12T06:11:50;101480.06;;;12.80;54.35
51147;BME280;37207;53.060;18.726;2023-05-12T06:14:17;101485.05;;;12.90;54.29
51147;BME280;37207;53.060;18.726;2023-05-12T06:16:43;101481.98;;;13.00;54.51
51147;BME280;37207;53.060;18.726;2023-05-12T06:19:10;101482.91;;;13.11;53.98
51147;BME280;37207;53.060;18.726;2023-05-12T06:21:37;101485.83;;;13.18;53.74
51147;BME280;37207;53.060;18.726;2023-05-12T06:24:04;101491.01;;;13.28;53.85
51147;BME280;37207;53.060;18.726;2023-05-12T06:26:30;101494.41;;;13.38;53.63
51147;BME280;37207;53.060;18.726;2023-05-12T06:28:57;101494.66;;;13.47;53.38
51147;BME280;37207;53.060;18.726;2023-05-12T06:31:24;101498.48;;;13.58;53.55
51147;BME280;37207;53.060;18.726;2023-05-12T06:33:50;101498.52;;;13.70;53.42
51147;BME280;37207;53.060;18.726;2023-05-12T06:36:17;101501.58;;;13.78;53.53
51147;BME280;37207;53.060;18.726;2023-05-12T06:38:43;101507.58;;;13.91;53.59
51147;BME280;37207;53.060;18.726;2023-05-12T06:41:12;101509.02;;;14.03;53.34
51147;BME280;37207;53.060;18.726;2023-05-12T06:43:41;101505.38;;;14.11;52.60
51147;BME280;37207;53.060;18.726;2023-05-12T06:46:08;101507.70;;;14.19;52.89
51147;BME280;37207;53.060;18.726;2023-05-12T06:48:35;101512.29;;;14.33;52.73
51147;BME280;37207;53.060;18.726;2023-05-12T06:51:02;101513.80;;;14.45;52.28
51147;BME280;37207;53.060;18.726;2023-05-12T06:53:29;101516.04;;;14.56;52.04
51147;BME280;37207;53.060;18.726;2023-05-12T06:55:56;101510.75;;;14.70;52.27
51147;BME280;37207;53.060;18.726;2023-05-12T06:58:23;101508.08;;;14.88;52.32
51147;BME280;37207;53.060;18.726;2023-05-12T07:00:50;101506.59;;;15.06;51.80
51147;BME280;37207;53.060;18.726;2023-05-12T07:03:16;101510.41;;;15.25;52.01
51147;BME280;37207;53.060;18.726;2023-05-12T07:05:43;101512.36;;;15.46;51.10
51147;BME280;37207;53.060;18.726;2023-05-12T07:08:09;101511.40;;;15.59;50.66
51147;BME280;37207;53.060;18.726;2023-05-12T07:10:36;101511.98;;;15.73;50.60
51147;BME280;37207;53.060;18.726;2023-05-12T07:13:03;101510.87;;;15.86;49.71
51147;BME280;37207;53.060;18.726;2023-05-12T07:15:30;101508.67;;;15.99;49.87
51147;BME280;37207;53.060;18.726;2023-05-12T07:17:56;101508.17;;;16.15;49.86
51147;BME280;37207;53.060;18.726;2023-05-12T07:20:23;101508.77;;;16.34;49.78
51147;BME280;37207;53.060;18.726;2023-05-12T07:22:49;101511.80;;;16.55;49.00
51147;BME280;37207;53.060;18.726;2023-05-12T07:25:17;101516.10;;;16.77;48.42
51147;BME280;37207;53.060;18.726;2023-05-12T07:27:44;101517.07;;;16.94;48.04
51147;BME280;37207;53.060;18.726;2023-05-12T07:30:11;101517.92;;;17.12;47.90
51147;BME280;37207;53.060;18.726;2023-05-12T07:32:37;101520.73;;;17.30;48.04
51147;BME280;37207;53.060;18.726;2023-05-12T07:35:04;101516.73;;;17.49;47.50
51147;BME280;37207;53.060;18.726;2023-05-12T07:37:31;101518.62;;;17.70;47.27
51147;BME280;37207;53.060;18.726;2023-05-12T07:39:57;101516.77;;;17.89;46.72
51147;BME280;37207;53.060;18.726;2023-05-12T07:42:24;101521.48;;;18.03;46.06
51147;BME280;37207;53.060;18.726;2023-05-12T07:44:50;101524.21;;;18.17;45.66
51147;BME280;37207;53.060;18.726;2023-05-12T07:47:17;101522.01;;;18.38;45.93
51147;BME280;37207;53.060;18.726;2023-05-12T07:49:43;101518.72;;;18.61;45.90
51147;BME280;37207;53.060;18.726;2023-05-12T07:52:10;101518.20;;;18.76;44.69
51147;BME280;37207;53.060;18.726;2023-05-12T07:54:36;101518.93;;;18.86;44.22
51147;BME280;37207;53.060;18.726;2023-05-12T07:57:03;101521.91;;;19.01;43.89
51147;BME280;37207;53.060;18.726;2023-05-12T07:59:30;101518.55;;;19.13;43.39
51147;BME280;37207;53.060;18.726;2023-05-12T08:01:56;101521.73;;;19.15;42.23
51147;BME280;37207;53.060;18.726;2023-05-12T08:04:24;101523.81;;;19.16;42.30
51147;BME280;37207;53.060;18.726;2023-05-12T08:06:50;101519.15;;;19.29;42.67
51147;BME280;37207;53.060;18.726;2023-05-12T08:09:17;101518.30;;;19.42;42.34
51147;BME280;37207;53.060;18.726;2023-05-12T08:11:43;101512.95;;;19.59;42.15
51147;BME280;37207;53.060;18.726;2023-05-12T08:14:10;101512.58;;;19.86;42.32
51147;BME280;37207;53.060;18.726;2023-05-12T08:16:37;101513.73;;;20.10;42.15
51147;BME280;37207;53.060;18.726;2023-05-12T08:19:04;101508.51;;;20.30;41.85
51147;BME280;37207;53.060;18.726;2023-05-12T08:21:30;101511.61;;;20.43;39.88
51147;BME280;37207;53.060;18.726;2023-05-12T08:23:57;101515.61;;;20.39;39.34
51147;BME280;37207;53.060;18.726;2023-05-12T08:26:24;101508.31;;;20.45;39.19
51147;BME280;37207;53.060;18.726;2023-05-12T08:28:51;101507.25;;;20.52;38.23
51147;BME280;37207;53.060;18.726;2023-05-12T08:31:17;101509.70;;;20.58;38.20
51147;BME280;37207;53.060;18.726;2023-05-12T08:33:44;101505.11;;;20.73;38.53
51147;BME280;37207;53.060;18.726;2023-05-12T08:36:10;101509.23;;;20.84;38.13
51147;BME280;37207;53.060;18.726;2023-05-12T08:38:37;101514.75;;;20.90;38.01
51147;BME280;37207;53.060;18.726;2023-05-12T08:41:29;101512.79;;;21.02;37.75
51147;BME280;37207;53.060;18.726;2023-05-12T08:43:58;101510.70;;;21.17;36.59
51147;BME280;37207;53.060;18.726;2023-05-12T08:46:25;101506.09;;;21.27;36.80
51147;BME280;37207;53.060;18.726;2023-05-12T08:48:52;101507.05;;;21.50;36.21
51147;BME280;37207;53.060;18.726;2023-05-12T08:51:20;101508.20;;;21.62;35.26
51147;BME280;37207;53.060;18.726;2023-05-12T08:53:47;101506.61;;;21.68;34.17
51147;BME280;37207;53.060;18.726;2023-05-12T08:56:16;101507.74;;;21.71;34.07
51147;BME280;37207;53.060;18.726;2023-05-12T08:58:45;101505.81;;;21.72;33.72
51147;BME280;37207;53.060;18.726;2023-05-12T09:01:13;101510.48;;;21.77;33.57
51147;BME280;37207;53.060;18.726;2023-05-12T09:03:41;101505.55;;;21.85;33.46
51147;BME280;37207;53.060;18.726;2023-05-12T09:06:08;101498.89;;;21.99;34.08
51147;BME280;37207;53.060;18.726;2023-05-12T09:08:37;101494.56;;;22.30;33.58
51147;BME280;37207;53.060;18.726;2023-05-12T09:11:09;101491.98;;;22.68;32.57
51147;BME280;37207;53.060;18.726;2023-05-12T09:16:14;101496.25;;;23.46;30.85
51147;BME280;37207;53.060;18.726;2023-05-12T09:18:51;101500.28;;;23.80;30.29
51147;BME280;37207;53.060;18.726;2023-05-12T09:21:19;101495.77;;;24.15;29.48
51147;BME280;37207;53.060;18.726;2023-05-12T09:23:57;101489.71;;;24.03;29.26
51147;BME280;37207;53.060;18.726;2023-05-12T09:26:26;101485.52;;;24.07;29.88
51147;BME280;37207;53.060;18.726;2023-05-12T09:28:55;101479.51;;;24.31;29.22
51147;BME280;37207;53.060;18.726;2023-05-12T09:31:30;101491.99;;;24.28;28.97
51147;BME280;37207;53.060;18.726;2023-05-12T09:33:57;101489.02;;;24.11;28.85
51147;BME280;37207;53.060;18.726;2023-05-12T09:36:24;101487.95;;;24.00;28.72
51147;BME280;37207;53.060;18.726;2023-05-12T09:39:01;101488.31;;;23.92;29.24
51147;BME280;37207;53.060;18.726;2023-05-12T09:41:33;101492.00;;;23.79;28.50
51147;BME280;37207;53.060;18.726;2023-05-12T09:44:00;101485.39;;;23.65;29.15
51147;BME280;37207;53.060;18.726;2023-05-12T09:46:27;101487.31;;;23.65;29.67
51147;BME280;37207;53.060;18.726;2023-05-12T09:48:57;101489.03;;;23.68;29.67
51147;BME280;37207;53.060;18.726;2023-05-12T09:51:25;101489.70;;;23.68;28.75
51147;BME280;37207;53.060;18.726;2023-05-12T09:53:52;101487.98;;;23.65;28.94
51147;BME280;37207;53.060;18.726;2023-05-12T09:56:19;101485.14;;;23.66;28.73
51147;BME280;37207;53.060;18.726;2023-05-12T09:58:47;101488.77;;;23.54;28.71
51147;BME280;37207;53.060;18.726;2023-05-12T10:01:15;101491.79;;;23.48;28.88
51147;BME280;37207;53.060;18.726;2023-05-12T10:03:44;101487.85;;;23.49;29.37
51147;BME280;37207;53.060;18.726;2023-05-12T10:06:15;101485.95;;;23.65;29.75
51147;BME280;37207;53.060;18.726;2023-05-12T10:08:50;101483.73;;;23.81;30.46
51147;BME280;37207;53.060;18.726;2023-05-12T10:11:17;101482.36;;;23.97;29.52
51147;BME280;37207;53.060;18.726;2023-05-12T10:13:44;101484.79;;;24.14;29.85
51147;BME280;37207;53.060;18.726;2023-05-12T10:16:12;101483.70;;;24.33;29.46
51147;BME280;37207;53.060;18.726;2023-05-12T10:18:41;101486.10;;;24.32;28.79
51147;BME280;37207;53.060;18.726;2023-05-12T10:21:11;101485.13;;;24.34;29.46
51147;BME280;37207;53.060;18.726;2023-05-12T10:23:39;101485.86;;;24.50;28.80
51147;BME280;37207;53.060;18.726;2023-05-12T10:26:09;101480.67;;;24.64;28.21
51147;BME280;37207;53.060;18.726;2023-05-12T10:28:37;101483.29;;;24.71;28.16
51147;BME280;37207;53.060;18.726;2023-05-12T10:31:05;101480.93;;;24.78;27.69
51147;BME280;37207;53.060;18.726;2023-05-12T10:33:32;101485.58;;;24.68;27.38
51147;BME280;37207;53.060;18.726;2023-05-12T10:36:00;101486.48;;;24.74;28.15
51147;BME280;37207;53.060;18.726;2023-05-12T10:38:34;101480.67;;;25.11;28.03
51147;BME280;37207;53.060;18.726;2023-05-12T10:41:05;101484.90;;;25.74;26.96
51147;BME280;37207;53.060;18.726;2023-05-12T10:43:38;101478.36;;;26.43;25.86
51147;BME280;37207;53.060;18.726;2023-05-12T10:46:18;101477.27;;;27.28;25.89
51147;BME280;37207;53.060;18.726;2023-05-12T10:48:57;101470.52;;;28.22;25.37
51147;BME280;37207;53.060;18.726;2023-05-12T10:51:28;101469.31;;;29.15;24.26
51147;BME280;37207;53.060;18.726;2023-05-12T10:54:01;101469.95;;;29.83;23.84
51147;BME280;37207;53.060;18.726;2023-05-12T11:01:40;101466.73;;;31.61;22.36
51147;BME280;37207;53.060;18.726;2023-05-12T11:04:13;101459.06;;;31.97;22.27
51147;BME280;37207;53.060;18.726;2023-05-12T11:06:41;101464.96;;;32.27;21.51
51147;BME280;37207;53.060;18.726;2023-05-12T11:09:09;101462.21;;;32.29;21.26
51147;BME280;37207;53.060;18.726;2023-05-12T11:11:39;101465.07;;;32.31;21.96
51147;BME280;37207;53.060;18.726;2023-05-12T11:14:05;101459.66;;;32.36;21.70
51147;BME280;37207;53.060;18.726;2023-05-12T11:16:33;101455.15;;;32.25;21.58
51147;BME280;37207;53.060;18.726;2023-05-12T11:19:06;101456.74;;;32.05;21.96
51147;BME280;37207;53.060;18.726;2023-05-12T11:21:33;101456.83;;;31.68;22.32
51147;BME280;37207;53.060;18.726;2023-05-12T11:24:01;101465.32;;;31.35;22.05
51147;BME280;37207;53.060;18.726;2023-05-12T11:26:28;101460.86;;;30.30;21.53
51147;BME280;37207;53.060;18.726;2023-05-12T11:28:56;101449.59;;;29.44;22.93
51147;BME280;37207;53.060;18.726;2023-05-12T11:31:23;101454.31;;;28.95;23.59
51147;BME280;37207;53.060;18.726;2023-05-12T11:34:01;101456.96;;;28.59;23.54
51147;BME280;37207;53.060;18.726;2023-05-12T11:36:35;101453.46;;;28.18;24.62
51147;BME280;37207;53.060;18.726;2023-05-12T11:39:01;101449.98;;;27.92;24.68
51147;BME280;37207;53.060;18.726;2023-05-12T11:41:28;101450.77;;;27.67;24.17
51147;BME280;37207;53.060;18.726;2023-05-12T11:43:55;101459.89;;;27.27;23.93
51147;BME280;37207;53.060;18.726;2023-05-12T11:46:25;101455.91;;;27.02;24.47
51147;BME280;37207;53.060;18.726;2023-05-12T11:48:58;101447.38;;;26.75;25.19
51147;BME280;37207;53.060;18.726;2023-05-12T11:51:26;101444.79;;;26.49;25.25
51147;BME280;37207;53.060;18.726;2023-05-12T11:53:53;101446.09;;;26.22;25.61
51147;BME280;37207;53.060;18.726;2023-05-12T11:56:22;101445.38;;;26.03;25.74
51147;BME280;37207;53.060;18.726;2023-05-12T11:58:57;101445.55;;;25.94;25.61
51147;BME280;37207;53.060;18.726;2023-05-12T12:01:24;101447.55;;;25.98;26.49
51147;BME280;37207;53.060;18.726;2023-05-12T12:03:52;101449.03;;;26.16;26.02
51147;BME280;37207;53.060;18.726;2023-05-12T12:06:20;101447.30;;;26.36;26.08
51147;BME280;37207;53.060;18.726;2023-05-12T12:08:52;101447.64;;;26.51;26.16
51147;BME280;37207;53.060;18.726;2023-05-12T12:11:20;101443.55;;;26.63;25.93
51147;BME280;37207;53.060;18.726;2023-05-12T12:13:51;101438.38;;;26.79;26.05
51147;BME280;37207;53.060;18.726;2023-05-12T12:16:26;101436.71;;;27.04;25.01
51147;BME280;37207;53.060;18.726;2023-05-12T12:18:53;101442.90;;;26.95;24.84
51147;BME280;37207;53.060;18.726;2023-05-12T12:21:20;101438.97;;;26.72;24.32
51147;BME280;37207;53.060;18.726;2023-05-12T12:23:47;101437.64;;;26.50;24.67
51147;BME280;37207;53.060;18.726;2023-05-12T12:26:15;101436.42;;;26.41;24.30
51147;BME280;37207;53.060;18.726;2023-05-12T12:28:45;101433.16;;;26.37;24.85
51147;BME280;37207;53.060;18.726;2023-05-12T12:31:12;101433.48;;;26.46;23.85
51147;BME280;37207;53.060;18.726;2023-05-12T12:33:39;101436.65;;;26.50;23.73
51147;BME280;37207;53.060;18.726;2023-05-12T12:36:06;101439.42;;;26.39;23.26
51147;BME280;37207;53.060;18.726;2023-05-12T12:38:33;101446.25;;;26.27;23.90
51147;BME280;37207;53.060;18.726;2023-05-12T12:41:00;101445.58;;;26.25;23.57
51147;BME280;37207;53.060;18.726;2023-05-12T12:43:26;101440.86;;;26.23;24.20
51147;BME280;37207;53.060;18.726;2023-05-12T12:45:53;101438.08;;;26.32;24.00
51147;BME280;37207;53.060;18.726;2023-05-12T12:48:20;101438.46;;;26.31;24.12
51147;BME280;37207;53.060;18.726;2023-05-12T12:50:47;101436.81;;;26.39;24.46
51147;BME280;37207;53.060;18.726;2023-05-12T12:53:14;101432.63;;;26.44;24.02